Mount Hope, West Virginia
Current Conditions -  °F | °C
As of 11:51 AM on Thursday 23 Oct 2014 (Local Time) from KBKW Reporting Station
Overcast Overcast  
Wind Chill: 41°   Ceiling: 1700
Heat Index: 46°   Visibility: 10mi
Dew Point: 38°   Wind: 10mph
Humidity: 73%   Direction: 330°NNW
Pressure: 30.17"   Gusts: NA
Location:  37.9°N, 81.16°W
Report Text: KBKW 231551Z AUTO 33009KT 10SM BKN017 OVC023 08/03 A3017 RMK AO2 SLP225 T00780033 TSNO
Loading
Personal Weather Stations






























Interactive Weather Map
Tropical Storm Tracking
New forecast layout! Learn more

10-Day Weather Forecast

Advertisements
Track Severe Weather on mobile